Airfield :
LOGIN :

Register | Disclaimer

   EN    FR    IT 

 










Legend :    VFR   Marginal VFR   IFR   Intensive IFR   Very Intensive IFR
Visi :
Ceiling :
>= 8 km
>= 3000ft
5 to 8 km
1000 to 3000 ft
1500m to 5 km
500 to 1000 ft
800 to 1500m
200 to 500 ft
< 800m
< 200 ft
Symbols :   Thunderstorms  Fog  Heavy snow  Heavy precipitations  Wind > 20 kt
SIGMETs :     Misc.  Thunderstorms  Icing  Turbulence  Mountain Waves  Volcanic Ashes






- Airport Elevation : 230 ft
- IATA code : VAR


LBWN - Varna

CURRENT METAR :
  • 211530Z 12006KT CAVOK 17/15 Q1023 NOSIG

EXPIRED METARs :
  • 211500Z 13007KT CAVOK 18/15 Q1023 NOSIG
  • 211430Z 12009KT CAVOK 19/15 Q1023 NOSIG
  • 211400Z 12010KT CAVOK 19/15 Q1023 NOSIG
  • 211330Z 13009KT CAVOK 20/15 Q1023 NOSIG
  • 211300Z 13010KT CAVOK 21/15 Q1023 NOSIG

TAF TAF LBWN
Valid from the 21 at 12:00 until the 22 at 12:00 UTC


211100Z 2112/2212 11010KT CAVOK
BECMG 2118/2120 VRB04KT 5000 BR SCT007 BKN015
BECMG 2122/2124 1500 BR BKN007
TEMPO 2200/2206 0400 FG BKN002
BECMG 2207/2208 5000 BR BKN012
BECMG 2208/2210 11010KT CAVOK



MET'MAP, your aeronautical weather chart ! - Copyright ORBIFLY December 2007 - Disclaimer

ORBIFLY MET'MAP TEAM :

Programming & Development : Alexandra Zaïnal
Concept & Development : Baudouin d'Aumeries
Co-Development & Prog : Marc-Olivier Méhu
Technical & hardware support : Manuel Goepfert

Contact : metmap@orbifly.com




SOURCES & CREDITS :

   NOAA